Depoe Bay, OR

7:37 AM PDT on August 20, 2014 (GMT -0700)
Newport Municipal | Change Station
CLOSE
Current Station
Airport
Location: Newport Airport,
Elevation: 157 ft
Nearby Weather Stations

Elev 157 ft 44.58 °N, 124.06 °W | Updated 22 minutes ago

Overcast
Overcast
59 °F
Feels Like 59 °F
N
0
Wind Variable Wind from North

Today
High -- | Low -- °F
--% Chance of Precip.
Yesterday
High -- | Low -- °F
Precip. -- in
6:24 AM 8:13 PM
Waning Crescent, 21% visible
Pressure 29.99 in
Visibility 7.0 miles
Clouds Mostly Cloudy 2200 ft
Mostly Cloudy 2700 ft
Overcast 6000 ft
Dew Point 57 °F
Humidity 94%
Rainfall 0.00 in
Snow Depth Not available.
UV 0 out of 12
Pollen 3.90 out of 12
Air Quality Not available.
Flu Activity Not available.
METAR KONP 201415Z AUTO 00000KT 7SM BKN022 BKN027 OVC060 15/14 A2999 RMK AO2

More Conditions Fewer Conditions

Pressure 29.99 in
Visibility 7.0 miles
Clouds Mostly Cloudy 2200 ft
Mostly Cloudy 2700 ft
Overcast 6000 ft
Dew Point 57 °F
Humidity 94%
Rainfall 0.00 in
Snow Depth Not available.
UV 0 out of 12
Pollen 3.90 out of 12
Air Quality Not available.
Flu Activity Not available.
METAR KONP 201415Z AUTO 00000KT 7SM BKN022 BKN027 OVC060 15/14 A2999 RMK AO2

More Conditions Fewer Conditions

10-Day Weather Forecast

Almanac

Astronomy

Aug. 20, 2014 Rise Set
Actual Time 6:24 AM PDT 8:13 PM PDT
Civil Twilight 5:53 AM PDT 8:45 PM PDT
Nautical Twilight 5:14 AM PDT 9:23 PM PDT
Astronomical Twilight 4:33 AM PDT 10:04 PM PDT
Moon 2:04 AM PDT 5:07 PM PDT
Length of Visible Light 14h 51m
Length of Day
13h 49m
Tomorrow will be 2m 52s shorter.
Waning Crescent, 21% of the Moon is Illuminated
Today
Waning Crescent
Aug 25
New
Sep 2
First Quarter
Sep 8
Full
Sep 15
Last Quarter

Today's Extremes

State Highs State Lows

Community

WunderPhotos

Upload Photos

1,745,654 photos uploaded!

Nearby

Snow Depth

Station Depth Elevation
Seine Creek 0 in 2000 ft
Daly Lake 0 in 3600 ft
Peavine Ridge 0 in 3500 ft
Santiam Junction 0 in 3750 ft
North Fork 1 in 3120 ft

Earthquake Activity

City Distance Mag. Time & Date
No recent earthquake activity has been reported nearby.
Minimum magnitude displayed is 2.5.

Coastal Water Temperatures

Place Temperature
South Beach, OR 55.9 °F
Charleston, OR 57.0 °F

Nearby Weather Stations